Terminal Aerodrome Forecast
Issued by NWS

Current Version | Previous Version | Graphics & Text | Print | Product List | Glossary On
Versions: 1 2 3 4 5 6 7 8 9 10 11 12 13 14 15 16 17 18 19 20 21
000
FTUS41 KRNK 260421 AAA
TAFLWB
TAF AMD
KLWB 260421Z 2604/2624 00000KT 5SM BR SCT100
     FM260500 00000KT 4SM BR SCT025
     FM260900 00000KT 1/4SM FG VV001
     FM261300 30003KT P6SM SCT015
     FM261700 29005KT P6SM SCT050=

USA.gov is the U.S. government's official web portal to all federal, state and local government web resources and services.